KSQL/SQL METAR and TAF weather

Enter ICAO airport designator
Station Type Date Time Source
KSQL METAR 2019/04/26 03:52 UTC NOAA

KSQL 260352Z 30006KT 10SM SKC 14/09 A2997 RMK LAST


Station Type Date Time Source
KSQL Decoded METAR 2019/04/26 03:52 UTC NOAA

San Carlos Airport, CA, United States (KSQL) 37-31N 122-15W
Apr 25, 2019 - 11:52 PM EDT / 2019.04.26 0352 UTC
Wind: from the WNW (300 degrees) at 7 MPH (6 KT):0
Visibility: 10 mile(s):0
Sky conditions: clear
Temperature: 57 F (14 C)
Dew Point: 48 F (9 C)
Relative Humidity: 71%
Pressure (altimeter): 29.97 in. Hg (1014 hPa)
ob: KSQL 260352Z 30006KT 10SM SKC 14/09 A2997 RMK LAST
cycle: 4

Station Type Date Time Source
KSQL TAF UTC NOAA

Error!

Example: see airport list